Time;durP1;ratioP1;P1;durP2;ratioP2;P2;SDS_P1;SDS_P2;PMS_P1;PMS_P2;Temp;Humidity;BMP_temperature;BMP_pressure;BME280_temperature;BME280_humidity;BME280_pressure;Samples;Min_cycle;Max_cycle;Signal;HPM_P1;HPM_P2
2023/09/06 00:00:43;;;;;;;7.90;3.90;;;;;;;16.79;59.64;101048.14;1682702;85;21094;-60
2023/09/06 00:02:53;;;;;;;7.17;4.03;;;;;;;16.76;59.71;101045.28;1679992;85;21051;-60
2023/09/06 00:05:22;;;;;;;5.97;3.92;;;;;;;16.75;59.62;101054.66;1680021;85;21055;-60
2023/09/06 00:07:50;;;;;;;7.80;4.33;;;;;;;16.73;59.62;101058.19;1682752;85;21098;-61
2023/09/06 00:10:19;;;;;;;7.78;3.92;;;;;;;16.73;59.82;101055.95;1682446;85;21568;-62
2023/09/06 00:12:48;;;;;;;5.85;3.62;;;;;;;16.71;59.90;101056.70;1682585;85;21134;-61
2023/09/06 00:15:18;;;;;;;6.35;3.85;;;;;;;16.69;59.96;101058.31;1682598;85;21253;-59
2023/09/06 00:17:47;;;;;;;6.55;3.85;;;;;;;16.67;60.02;101052.69;1682400;85;21495;-61
2023/09/06 00:20:24;;;;;;;6.87;3.80;;;;;;;16.64;60.16;101056.71;1682493;85;22113;-60
2023/09/06 00:22:47;;;;;;;5.53;3.55;;;;;;;16.62;60.12;101051.94;1682208;85;21519;-61
2023/09/06 00:25:16;;;;;;;7.20;3.70;;;;;;;16.62;60.13;101054.70;1682835;85;21147;-61
2023/09/06 00:27:45;;;;;;;7.03;3.87;;;;;;;16.59;60.06;101048.77;1682513;85;21526;-62
2023/09/06 00:30:13;;;;;;;6.80;4.05;;;;;;;16.54;60.06;101046.66;1682798;85;21217;-61
2023/09/06 00:32:42;;;;;;;6.17;3.52;;;;;;;16.53;60.21;101051.88;1682421;84;21110;-61
2023/09/06 00:35:12;;;;;;;7.12;3.58;;;;;;;16.52;60.11;101046.03;1682460;85;21083;-61
2023/09/06 00:37:41;;;;;;;7.87;3.80;;;;;;;16.52;60.05;101054.33;1682644;85;21075;-61
2023/09/06 00:40:18;;;;;;;7.70;4.45;;;;;;;16.50;60.13;101045.41;1682608;85;21106;-61
2023/09/06 00:42:53;;;;;;;6.35;3.90;;;;;;;16.49;60.16;101054.78;1682583;85;21054;-60
2023/09/06 00:45:25;;;;;;;6.90;4.00;;;;;;;16.46;60.18;101047.77;1682739;85;21051;-61
2023/09/06 00:47:55;;;;;;;7.10;3.80;;;;;;;16.43;60.16;101055.13;1682476;85;21568;-61
2023/09/06 00:50:23;;;;;;;6.17;3.85;;;;;;;16.39;60.42;101061.31;1682447;85;21079;-59
2023/09/06 00:52:53;;;;;;;8.58;4.10;;;;;;;16.35;60.57;101056.76;1682393;85;21086;-60
2023/09/06 00:55:21;;;;;;;7.05;3.85;;;;;;;16.30;60.71;101064.02;1682476;85;21106;-62
2023/09/06 00:57:49;;;;;;;6.45;4.05;;;;;;;16.22;60.91;101060.93;1682531;85;21031;-61
2023/09/06 01:00:20;;;;;;;5.90;3.52;;;;;;;16.16;61.12;101059.89;1682578;85;21078;-61
2023/09/06 01:02:48;;;;;;;6.97;3.70;;;;;;;16.12;61.31;101055.86;1682593;85;21091;-62
2023/09/06 01:05:17;;;;;;;7.47;3.70;;;;;;;16.07;61.57;101057.58;1680036;85;21063;-61
2023/09/06 01:07:54;;;;;;;5.50;3.45;;;;;;;16.02;61.84;101052.71;1682669;85;21082;-60
2023/09/06 01:10:23;;;;;;;6.55;3.72;;;;;;;16.00;61.97;101052.61;1682429;85;21094;-60
2023/09/06 01:12:55;;;;;;;7.67;3.45;;;;;;;16.02;61.96;101058.23;1682634;85;21091;-60
2023/09/06 01:15:22;;;;;;;8.80;3.83;;;;;;;16.02;62.06;101057.39;1682626;85;21451;-60
2023/09/06 01:17:53;;;;;;;8.18;3.70;;;;;;;16.02;62.19;101049.95;1682653;85;21058;-61
2023/09/06 01:20:45;;;;;;;6.00;3.42;;;;;;;16.01;62.34;101053.78;1682455;85;21483;-60
2023/09/06 01:23:36;;;;;;;6.25;3.65;;;;;;;15.99;62.28;101057.29;1682453;85;21035;-60
2023/09/06 01:26:05;;;;;;;6.62;3.25;;;;;;;15.95;62.35;101056.56;1679078;85;21575;-61
2023/09/06 01:28:33;;;;;;;7.17;3.47;;;;;;;15.87;62.58;101054.88;1659510;85;21079;-61
2023/09/06 01:31:02;;;;;;;6.30;3.45;;;;;;;15.87;62.67;101052.12;1682632;83;21536;-61
2023/09/06 01:33:31;;;;;;;5.83;3.60;;;;;;;15.84;62.81;101048.41;1682446;85;21115;-61
2023/09/06 01:36:00;;;;;;;5.80;3.33;;;;;;;15.82;62.95;101050.00;1682503;85;21078;-60
2023/09/06 01:38:31;;;;;;;7.85;4.08;;;;;;;15.82;63.10;101049.16;1682735;85;21110;-61
2023/09/06 01:40:59;;;;;;;8.25;4.10;;;;;;;15.82;63.14;101048.62;1682399;85;21098;-60
2023/09/06 01:43:31;;;;;;;8.35;3.72;;;;;;;15.74;63.38;101043.33;1682519;85;21031;-61
2023/09/06 01:46:00;;;;;;;7.08;3.87;;;;;;;15.70;63.48;101048.97;1682384;85;21050;-62
2023/09/06 01:48:29;;;;;;;6.78;3.87;;;;;;;15.69;63.71;101050.56;1682419;85;21043;-61
2023/09/06 01:51:00;;;;;;;7.12;3.80;;;;;;;15.69;63.81;101047.80;1682646;85;21074;-61
2023/09/06 01:53:29;;;;;;;7.92;4.05;;;;;;;15.68;63.89;101050.25;1682705;85;21067;-62
2023/09/06 01:55:58;;;;;;;6.25;3.80;;;;;;;15.69;63.98;101050.56;1682808;85;21071;-62
2023/09/06 01:58:32;;;;;;;6.67;4.12;;;;;;;15.70;64.10;101055.03;1682726;85;21059;-61
2023/09/06 02:00:57;;;;;;;6.55;3.72;;;;;;;15.72;64.17;101062.56;1682534;85;21062;-61
2023/09/06 02:03:27;;;;;;;5.95;3.80;;;;;;;15.73;64.23;101062.88;1682578;85;21098;-61
2023/09/06 02:05:56;;;;;;;6.72;3.90;;;;;;;15.74;64.27;101057.67;1680143;85;21067;-61
2023/09/06 02:08:25;;;;;;;5.95;3.27;;;;;;;15.73;64.32;101051.30;1682479;85;21490;-62
2023/09/06 02:10:54;;;;;;;7.20;3.50;;;;;;;15.70;64.40;101047.59;1682442;85;21054;-61
2023/09/06 02:13:23;;;;;;;5.15;3.27;;;;;;;15.68;64.50;101053.86;1682738;85;21055;-60
2023/09/06 02:15:52;;;;;;;7.97;3.80;;;;;;;15.67;64.64;101056.30;1682563;85;21051;-61
2023/09/06 02:18:21;;;;;;;6.05;3.47;;;;;;;15.66;64.70;101048.23;1682477;85;21110;-62
2023/09/06 02:20:50;;;;;;;5.45;3.67;;;;;;;15.59;64.80;101052.89;1682590;85;21031;-62
2023/09/06 02:23:19;;;;;;;6.22;3.30;;;;;;;15.50;65.13;101051.70;1682730;85;21086;-61
2023/09/06 02:25:47;;;;;;;6.92;3.60;;;;;;;15.48;65.44;101047.45;1682774;85;21352;-62
2023/09/06 02:28:17;;;;;;;6.95;3.37;;;;;;;15.46;65.64;101049.58;1682624;85;21083;-61
2023/09/06 02:30:46;;;;;;;8.98;3.60;;;;;;;15.44;65.82;101052.55;1682562;85;21019;-61
2023/09/06 02:33:15;;;;;;;5.67;3.42;;;;;;;15.40;66.00;101050.44;1682535;85;21098;-61
2023/09/06 02:35:45;;;;;;;4.87;3.33;;;;;;;15.40;66.14;101051.81;1682631;85;21205;-61
2023/09/06 02:38:15;;;;;;;6.62;3.62;;;;;;;15.38;66.25;101053.41;1682584;85;21553;-60
2023/09/06 02:40:44;;;;;;;7.58;3.70;;;;;;;15.37;66.42;101051.71;1682560;85;21058;-62
2023/09/06 02:43:13;;;;;;;7.37;4.30;;;;;;;15.37;66.58;101050.33;1659438;85;21066;-63
2023/09/06 02:45:49;;;;;;;7.65;3.62;;;;;;;15.36;66.71;101054.69;1682679;85;21062;-61
2023/09/06 02:48:16;;;;;;;6.33;3.98;;;;;;;15.36;66.72;101049.16;1682629;85;21074;-62
2023/09/06 02:50:47;;;;;;;7.72;3.90;;;;;;;15.35;66.74;101053.84;1682543;85;21190;-62
2023/09/06 02:53:19;;;;;;;6.85;4.03;;;;;;;15.35;66.75;101052.45;1682818;85;21026;-63
2023/09/06 02:55:54;;;;;;;7.67;4.45;;;;;;;15.31;66.85;101053.09;1682566;85;21214;-62
2023/09/06 02:58:23;;;;;;;8.35;4.25;;;;;;;15.29;66.91;101053.84;1682496;85;21051;-60
2023/09/06 03:00:57;;;;;;;7.70;4.53;;;;;;;15.26;66.92;101045.45;1682428;85;21087;-63
2023/09/06 03:03:26;;;;;;;10.08;5.30;;;;;;;15.21;66.88;101051.61;1682816;85;21063;-61
2023/09/06 03:05:58;;;;;;;11.05;5.70;;;;;;;15.18;66.98;101049.80;1680031;85;21487;-61
2023/09/06 03:08:28;;;;;;;9.85;5.78;;;;;;;15.12;66.92;101057.02;1682556;85;21490;-62
2023/09/06 03:10:57;;;;;;;10.25;5.40;;;;;;;15.09;66.99;101056.59;1682671;85;21071;-61
2023/09/06 03:13:25;;;;;;;12.58;5.72;;;;;;;15.08;66.94;101053.52;1682650;85;21103;-63
2023/09/06 03:15:54;;;;;;;58.60;33.00;;;;;;;15.05;66.92;101050.65;1681941;85;21031;-62
2023/09/06 03:18:22;;;;;;;94.28;44.35;;;;;;;15.05;66.93;101052.56;1682499;85;21118;-60
2023/09/06 03:20:55;;;;;;;187.57;81.05;;;;;;;15.05;66.96;101051.17;1682651;85;21074;-62
2023/09/06 03:23:24;;;;;;;115.40;54.67;;;;;;;15.04;67.06;101050.33;1682737;85;21034;-62
2023/09/06 03:25:55;;;;;;;58.42;31.68;;;;;;;15.01;67.21;101052.13;1682720;85;21063;-62
2023/09/06 03:28:26;;;;;;;43.87;23.98;;;;;;;14.96;67.35;101047.77;1682085;85;21031;-62
2023/09/06 03:30:59;;;;;;;26.82;14.23;;;;;;;14.93;67.50;101055.59;1682530;85;21043;-61
2023/09/06 03:33:31;;;;;;;29.77;14.33;;;;;;;14.93;67.53;101058.35;1678367;85;21078;-61
2023/09/06 03:35:59;;;;;;;20.88;9.58;;;;;;;14.91;67.47;101051.13;1676897;85;21011;-62
2023/09/06 03:38:29;;;;;;;19.65;8.58;;;;;;;14.89;67.48;101051.88;1676802;85;21027;-61
2023/09/06 03:41:02;;;;;;;15.85;8.05;;;;;;;14.90;67.42;101054.95;1676855;85;21102;-61
2023/09/06 03:43:30;;;;;;;12.13;6.85;;;;;;;14.90;67.41;101058.24;1676795;85;21216;-62
2023/09/06 03:46:07;;;;;;;12.50;6.40;;;;;;;14.87;67.55;101053.99;1676954;85;21063;-61
2023/09/06 03:48:35;;;;;;;15.65;7.08;;;;;;;14.85;67.69;101060.25;1676967;85;21095;-61
2023/09/06 03:51:06;;;;;;;15.48;5.83;;;;;;;14.80;67.88;101055.89;1677001;85;21075;-60
2023/09/06 03:53:38;;;;;;;11.45;6.03;;;;;;;14.80;68.05;101056.42;1677028;85;21035;-61
2023/09/06 03:56:10;;;;;;;11.93;6.42;;;;;;;14.79;68.13;101062.47;1676860;85;21102;-60
2023/09/06 03:58:43;;;;;;;11.45;6.50;;;;;;;14.80;68.16;101062.79;1676918;84;21114;-61
2023/09/06 04:01:15;;;;;;;13.80;6.28;;;;;;;14.81;68.09;101078.28;1676841;85;21074;-61
2023/09/06 04:03:43;;;;;;;15.78;6.67;;;;;;;14.83;68.06;101077.55;1677154;85;21038;-60
2023/09/06 04:06:13;;;;;;;14.25;6.70;;;;;;;14.84;68.11;101077.02;1676013;85;21047;-61
2023/09/06 04:08:42;;;;;;;12.53;6.92;;;;;;;14.84;68.15;101080.63;1676874;85;21143;-60
2023/09/06 04:11:11;;;;;;;13.62;6.92;;;;;;;14.83;68.02;101080.83;1676884;85;21087;-60
2023/09/06 04:13:43;;;;;;;12.53;6.78;;;;;;;14.86;67.92;101078.51;1677021;85;21070;-61
2023/09/06 04:16:13;;;;;;;13.35;7.10;;;;;;;14.87;67.90;101082.11;1676880;85;21099;-61
2023/09/06 04:18:43;;;;;;;19.70;7.12;;;;;;;14.88;67.89;101075.54;1677169;85;21066;-61
2023/09/06 04:21:12;;;;;;;13.90;6.83;;;;;;;14.90;67.94;101082.55;1676821;85;21509;-61
2023/09/06 04:23:44;;;;;;;12.80;7.50;;;;;;;14.94;67.87;101079.37;1677031;85;21090;-60
2023/09/06 04:26:15;;;;;;;18.23;7.90;;;;;;;14.96;67.89;101082.80;1676718;85;21511;-60
2023/09/06 04:28:44;;;;;;;12.88;7.47;;;;;;;14.99;67.82;101079.09;1677049;85;21467;-61
2023/09/06 04:31:17;;;;;;;16.25;7.15;;;;;;;15.05;67.65;101076.02;1677045;85;21162;-60
2023/09/06 04:33:46;;;;;;;14.70;6.85;;;;;;;15.11;67.29;101083.45;1676820;83;21116;-62
2023/09/06 04:36:18;;;;;;;14.45;7.33;;;;;;;15.17;67.02;101085.38;1676917;85;21163;-59
2023/09/06 04:38:47;;;;;;;17.12;7.90;;;;;;;15.19;66.88;101080.48;1676788;85;21545;-61
2023/09/06 04:41:16;;;;;;;20.12;8.43;;;;;;;15.22;66.85;101083.68;1677064;85;21055;-61
2023/09/06 04:43:46;;;;;;;15.90;8.03;;;;;;;15.28;66.83;101084.74;1676984;85;21054;-61
2023/09/06 04:46:15;;;;;;;18.67;7.60;;;;;;;15.33;66.75;101080.81;1676787;85;21082;-60
2023/09/06 04:48:46;;;;;;;18.95;8.65;;;;;;;15.38;66.64;101081.03;1677023;85;21055;-61
2023/09/06 04:51:15;;;;;;;19.17;7.78;;;;;;;15.49;66.55;101086.44;1676994;85;21059;-61
2023/09/06 04:53:44;;;;;;;17.25;7.85;;;;;;;15.57;66.40;101086.75;1677066;85;21071;-61
2023/09/06 04:56:16;;;;;;;18.45;7.60;;;;;;;15.65;66.19;101085.22;1676964;85;21501;-61
2023/09/06 04:58:49;;;;;;;19.20;8.65;;;;;;;15.70;66.08;101089.56;1676960;85;21087;-61
2023/09/06 05:01:17;;;;;;;14.83;7.97;;;;;;;15.76;65.99;101091.47;1677015;85;21060;-63
2023/09/06 05:03:48;;;;;;;17.15;8.43;;;;;;;15.82;66.03;101092.84;1676739;85;21091;-63
2023/09/06 05:06:18;;;;;;;22.10;8.63;;;;;;;15.91;66.00;101092.61;1676515;85;21067;-61
2023/09/06 05:08:46;;;;;;;19.23;8.13;;;;;;;16.00;65.93;101100.98;1676917;85;21056;-62
2023/09/06 05:11:17;;;;;;;17.80;8.18;;;;;;;16.08;65.79;101093.30;1676862;85;21083;-61
2023/09/06 05:13:47;;;;;;;13.95;6.90;;;;;;;16.16;65.65;101086.69;1676812;85;21051;-61
2023/09/06 05:16:17;;;;;;;17.42;7.55;;;;;;;16.22;65.40;101086.35;1676796;85;21078;-61
2023/09/06 05:18:47;;;;;;;18.85;7.87;;;;;;;16.29;65.34;101081.68;1676881;85;21063;-61
2023/09/06 05:21:18;;;;;;;25.57;9.00;;;;;;;16.35;65.19;101081.66;1676990;85;21071;-61
2023/09/06 05:23:47;;;;;;;25.00;8.45;;;;;;;16.43;65.04;101076.41;1676808;85;21082;-60
2023/09/06 05:26:17;;;;;;;19.07;8.80;;;;;;;16.53;64.94;101080.08;1676823;85;21703;-60
2023/09/06 05:28:48;;;;;;;21.20;9.35;;;;;;;16.62;64.77;101082.38;1676799;85;21097;-62
2023/09/06 05:31:18;;;;;;;19.42;9.43;;;;;;;16.72;64.57;101086.93;1676942;85;21091;-61
2023/09/06 05:33:48;;;;;;;20.80;9.50;;;;;;;16.83;64.31;101081.22;1676801;84;21122;-61
2023/09/06 05:36:19;;;;;;;21.73;10.25;;;;;;;16.92;64.07;101084.07;1676796;85;21483;-61
2023/09/06 05:38:48;;;;;;;19.60;9.15;;;;;;;17.01;63.75;101079.11;1659185;85;21507;-62
2023/09/06 05:41:19;;;;;;;21.87;8.25;;;;;;;17.12;63.30;101081.17;1677039;84;21095;-61
2023/09/06 05:43:48;;;;;;;18.48;7.62;;;;;;;17.23;62.59;101087.91;1676949;85;21071;-62
2023/09/06 05:46:17;;;;;;;14.65;7.15;;;;;;;17.32;61.73;101081.86;1676746;85;21467;-61
2023/09/06 05:48:48;;;;;;;16.57;6.65;;;;;;;17.44;60.94;101080.59;1674925;85;21185;-62
2023/09/06 05:51:16;;;;;;;17.12;6.87;;;;;;;17.57;60.38;101084.66;1676948;84;21483;-62
2023/09/06 05:53:46;;;;;;;15.65;6.30;;;;;;;17.67;59.66;101082.79;1676765;85;21524;-61
2023/09/06 05:56:15;;;;;;;12.47;5.65;;;;;;;17.79;59.12;101085.66;1677184;85;21062;-60
2023/09/06 05:58:47;;;;;;;15.78;5.80;;;;;;;17.90;58.30;101094.61;1676963;85;21092;-63
2023/09/06 06:01:17;;;;;;;15.88;6.37;;;;;;;18.01;57.85;101089.15;1676967;85;21083;-62
2023/09/06 06:03:45;;;;;;;19.77;6.12;;;;;;;18.12;57.56;101088.92;1676943;85;21076;-63
2023/09/06 06:06:17;;;;;;;10.82;5.08;;;;;;;18.22;56.98;101089.80;1676009;85;21031;-61
2023/09/06 06:08:45;;;;;;;12.30;4.50;;;;;;;18.31;56.44;101097.59;1676788;85;21585;-61
2023/09/06 06:11:15;;;;;;;10.35;4.50;;;;;;;18.38;55.77;101090.03;1676778;85;21143;-63
2023/09/06 06:13:45;;;;;;;10.48;4.22;;;;;;;18.49;55.37;101098.66;1676792;84;21027;-61
2023/09/06 06:16:16;;;;;;;13.68;4.75;;;;;;;18.60;55.03;101095.94;1675376;85;21143;-60
2023/09/06 06:18:44;;;;;;;9.58;4.33;;;;;;;18.70;54.80;101092.64;1676904;85;21059;-59
2023/09/06 06:21:14;;;;;;;7.92;4.30;;;;;;;18.79;54.41;101098.70;1676952;85;21193;-61
2023/09/06 06:23:44;;;;;;;7.95;3.85;;;;;;;18.88;53.84;101098.72;1676782;85;21468;-63
2023/09/06 06:26:14;;;;;;;7.35;3.12;;;;;;;18.97;53.50;101097.30;1676867;85;21047;-62
2023/09/06 06:28:43;;;;;;;8.18;3.58;;;;;;;19.04;53.08;101102.22;1676755;85;21509;-61
2023/09/06 06:31:12;;;;;;;12.45;3.92;;;;;;;19.08;52.86;101099.81;1676870;84;21048;-62
2023/09/06 06:33:43;;;;;;;9.43;3.40;;;;;;;19.12;52.80;101101.87;1679309;85;21125;-62
2023/09/06 06:36:11;;;;;;;11.60;3.70;;;;;;;19.19;52.78;101098.45;1682562;85;21094;-61
2023/09/06 06:38:40;;;;;;;13.75;4.72;;;;;;;19.25;52.70;101100.83;1682448;85;21575;-61
2023/09/06 06:41:23;;;;;;;13.88;5.00;;;;;;;19.31;52.42;101103.50;1682665;85;21015;-61
2023/09/06 06:43:54;;;;;;;10.40;3.83;;;;;;;19.40;52.32;101097.59;1682453;85;21111;-62
2023/09/06 06:46:30;;;;;;;7.12;3.70;;;;;;;19.50;51.87;101100.63;1682435;85;21051;-61
2023/09/06 06:48:59;;;;;;;14.87;4.22;;;;;;;19.58;51.33;101098.41;1682597;85;21062;-62
2023/09/06 06:51:34;;;;;;;8.45;3.42;;;;;;;19.62;51.27;101101.02;1682822;85;21094;-61
2023/09/06 06:53:59;;;;;;;8.38;3.65;;;;;;;19.70;50.89;101094.25;1682398;85;21558;-62
2023/09/06 06:56:28;;;;;;;7.60;3.45;;;;;;;19.77;50.87;101092.73;1682423;85;21170;-60
2023/09/06 06:58:56;;;;;;;5.25;3.40;;;;;;;19.84;50.90;101092.92;1682443;85;21063;-61
2023/09/06 07:01:27;;;;;;;7.50;3.85;;;;;;;19.91;50.63;101099.20;1682620;85;21046;-61
2023/09/06 07:03:56;;;;;;;9.10;3.80;;;;;;;19.99;50.62;101102.71;1682541;85;21071;-61
2023/09/06 07:06:25;;;;;;;6.70;4.00;;;;;;;20.06;50.30;101087.58;1679917;85;21482;-62
2023/09/06 07:08:54;;;;;;;10.78;3.47;;;;;;;20.12;50.32;101091.33;1682633;85;21062;-61
2023/09/06 07:11:23;;;;;;;14.55;5.08;;;;;;;20.18;50.64;101078.70;1682762;85;21058;-61
2023/09/06 07:13:52;;;;;;;6.30;3.80;;;;;;;20.26;50.12;101087.22;1682654;85;21115;-61
2023/09/06 07:16:21;;;;;;;7.58;3.98;;;;;;;20.31;49.77;101078.98;1682539;85;21139;-61
2023/09/06 07:18:51;;;;;;;6.92;3.65;;;;;;;20.38;49.62;101083.02;1682507;85;21471;-60
2023/09/06 07:21:20;;;;;;;9.20;3.65;;;;;;;20.42;49.66;101078.69;1682448;85;21078;-62
2023/09/06 07:23:49;;;;;;;32.53;5.92;;;;;;;20.50;49.53;101081.92;1682480;85;21054;-64
2023/09/06 07:26:17;;;;;;;9.35;3.62;;;;;;;20.61;49.28;101076.02;1682575;85;21086;-61
2023/09/06 07:28:47;;;;;;;12.63;4.33;;;;;;;20.76;49.03;101078.27;1682640;85;21031;-62
2023/09/06 07:31:15;;;;;;;5.97;3.20;;;;;;;20.87;49.17;101074.06;1682702;85;21114;-62
2023/09/06 07:33:44;;;;;;;9.25;3.85;;;;;;;20.94;48.60;101069.73;1682404;84;21094;-62
2023/09/06 07:36:14;;;;;;;7.60;3.10;;;;;;;21.01;48.77;101066.23;1682527;85;21541;-62
2023/09/06 07:38:42;;;;;;;4.95;2.87;;;;;;;21.11;48.41;101065.03;1682438;85;21166;-61
2023/09/06 07:41:11;;;;;;;13.40;6.72;;;;;;;21.21;48.13;101065.76;1682648;85;21109;-61
2023/09/06 07:43:41;;;;;;;8.43;3.65;;;;;;;21.29;47.94;101064.53;1682651;85;21082;-61
2023/09/06 07:46:10;;;;;;;9.03;5.20;;;;;;;21.37;47.85;101064.95;1681554;85;21062;-63
2023/09/06 07:48:41;;;;;;;6.40;3.70;;;;;;;21.51;47.72;101065.49;1682494;85;21024;-63
2023/09/06 07:51:12;;;;;;;5.75;3.40;;;;;;;21.77;47.78;101061.16;1682390;85;21544;-61
2023/09/06 07:53:41;;;;;;;5.20;3.25;;;;;;;22.11;47.05;101057.81;1682401;85;21059;-65
2023/09/06 07:56:10;;;;;;;5.28;3.02;;;;;;;22.58;46.34;101060.08;1681956;85;21094;-62
2023/09/06 07:58:39;;;;;;;6.65;3.05;;;;;;;23.08;45.00;101051.46;1668802;85;21050;-62
2023/09/06 08:01:08;;;;;;;4.87;3.00;;;;;;;23.64;44.12;101054.80;1668101;86;21503;-63
2023/09/06 08:03:38;;;;;;;5.80;3.30;;;;;;;24.19;43.20;101045.92;1667085;85;21105;-62
2023/09/06 08:06:07;;;;;;;9.70;4.70;;;;;;;24.68;41.99;101051.19;1661432;85;21059;-61
2023/09/06 08:08:37;;;;;;;4.65;2.98;;;;;;;25.14;41.45;101055.55;1654775;86;21142;-61
2023/09/06 08:11:07;;;;;;;4.72;3.00;;;;;;;25.62;40.25;101049.12;1654727;87;21527;-60
2023/09/06 08:13:41;;;;;;;5.92;3.77;;;;;;;26.07;38.57;101058.94;1654626;87;21106;-61
2023/09/06 08:16:10;;;;;;;9.40;3.40;;;;;;;26.27;38.52;101056.63;1654853;86;21051;-61
2023/09/06 08:18:40;;;;;;;6.42;2.62;;;;;;;26.55;37.94;101060.76;1654882;86;21031;-61
2023/09/06 08:21:09;;;;;;;7.10;3.15;;;;;;;26.78;37.20;101062.08;1654743;87;21059;-62
2023/09/06 08:23:38;;;;;;;4.42;3.10;;;;;;;26.88;36.96;101056.39;1654952;87;21507;-72
2023/09/06 08:26:08;;;;;;;4.00;2.80;;;;;;;26.88;36.96;101056.39;1654844;87;21141;-71
2023/09/06 08:28:36;;;;;;;6.72;3.25;;;;;;;27.03;36.35;101049.86;1654908;86;21221;-71
2023/09/06 08:31:05;;;;;;;6.20;3.22;;;;;;;27.12;35.87;101048.10;1654881;87;21023;-71
2023/09/06 08:33:34;;;;;;;5.92;3.15;;;;;;;27.10;35.83;101050.37;1650274;85;21130;-70
2023/09/06 08:36:04;;;;;;;7.03;3.12;;;;;;;27.14;35.30;101050.05;1626497;87;21042;-70
2023/09/06 08:38:33;;;;;;;6.60;3.62;;;;;;;27.13;35.70;101046.97;1626191;87;21147;-72
2023/09/06 08:41:02;;;;;;;9.70;3.45;;;;;;;27.21;35.73;101048.31;1626376;88;21574;-71
2023/09/06 08:43:35;;;;;;;12.82;4.60;;;;;;;27.43;35.49;101044.50;1643942;86;21095;-70
2023/09/06 08:46:09;;;;;;;10.82;3.45;;;;;;;27.63;35.12;101047.73;1652731;87;21435;-72
2023/09/06 08:48:39;;;;;;;6.10;3.35;;;;;;;27.70;34.96;101049.08;1647494;85;21098;-67
2023/09/06 08:51:11;;;;;;;5.35;3.15;;;;;;;27.72;35.01;101044.55;1649535;85;21011;-72
2023/09/06 08:53:44;;;;;;;6.67;3.40;;;;;;;27.65;34.50;101039.27;1647247;86;21524;-72
2023/09/06 08:56:15;;;;;;;6.15;3.60;;;;;;;27.55;34.61;101035.67;1624886;87;21019;-72
2023/09/06 08:58:44;;;;;;;7.58;3.15;;;;;;;27.38;34.58;101036.95;1647434;87;21051;-76
2023/09/06 09:01:13;;;;;;;8.25;4.35;;;;;;;27.09;35.08;101045.88;1647193;87;21100;-79
2023/09/06 09:03:42;;;;;;;5.15;3.25;;;;;;;26.87;35.59;101045.43;1647372;86;21127;-71
2023/09/06 09:06:11;;;;;;;5.67;3.37;;;;;;;26.69;35.57;101039.34;1623919;87;21087;-73
2023/09/06 09:08:41;;;;;;;7.55;3.40;;;;;;;26.52;35.65;101043.91;1606973;89;21092;-70
2023/09/06 09:11:19;;;;;;;5.37;3.12;;;;;;;26.29;35.94;101037.52;1654367;87;21096;-71
2023/09/06 09:13:47;;;;;;;7.08;3.08;;;;;;;26.00;36.19;101035.05;1654288;87;21529;-71
2023/09/06 09:16:17;;;;;;;4.80;2.60;;;;;;;25.84;36.70;101027.23;1654516;85;21156;-71
2023/09/06 09:18:47;;;;;;;7.22;3.10;;;;;;;25.79;36.73;101019.66;1654708;85;21042;-70
2023/09/06 09:21:16;;;;;;;6.12;2.80;;;;;;;25.72;36.77;101016.87;1654418;85;21105;-70
2023/09/06 09:23:49;;;;;;;5.70;3.05;;;;;;;25.66;36.90;101021.65;1654600;85;21086;-70
2023/09/06 09:26:19;;;;;;;4.75;3.00;;;;;;;25.60;37.01;101022.19;1654400;87;21109;-70
2023/09/06 09:28:51;;;;;;;5.10;2.70;;;;;;;25.60;37.21;101025.55;1654495;87;21054;-71
2023/09/06 09:31:20;;;;;;;4.75;2.85;;;;;;;25.52;37.22;101018.55;1654337;87;21053;-70
2023/09/06 09:33:54;;;;;;;6.47;2.98;;;;;;;25.48;37.13;101015.19;1630198;86;21042;-70
2023/09/06 09:36:28;;;;;;;5.72;2.98;;;;;;;25.38;37.27;101026.42;1630550;87;21082;-70
2023/09/06 09:38:55;;;;;;;5.05;2.85;;;;;;;25.33;37.40;101012.36;1654278;87;21488;-70
2023/09/06 09:41:24;;;;;;;5.10;2.95;;;;;;;25.31;37.57;101012.64;1654216;85;21007;-74
2023/09/06 09:43:58;;;;;;;5.47;2.92;;;;;;;25.23;37.71;101010.39;1654531;87;21034;-71
2023/09/06 09:46:29;;;;;;;5.58;3.47;;;;;;;25.18;37.92;101013.20;1632231;87;21498;-72
2023/09/06 09:49:01;;;;;;;5.03;3.25;;;;;;;25.11;38.06;101013.48;1654440;85;21042;-73
2023/09/06 09:51:31;;;;;;;8.48;3.25;;;;;;;25.05;38.18;101008.14;1654476;87;21073;-72
2023/09/06 09:54:01;;;;;;;6.65;2.98;;;;;;;24.95;38.60;101008.95;1654401;85;21062;-73
2023/09/06 09:56:38;;;;;;;7.08;3.27;;;;;;;24.93;38.92;101012.03;1654296;87;21015;-71
2023/09/06 09:59:08;;;;;;;5.12;3.02;;;;;;;24.98;38.89;101004.78;1654367;87;21049;-73
2023/09/06 10:01:37;;;;;;;5.45;2.83;;;;;;;25.03;39.05;101002.81;1654212;87;21482;-73
2023/09/06 10:04:07;;;;;;;7.37;3.00;;;;;;;25.08;38.61;101010.39;1654219;87;21065;-72
2023/09/06 10:06:36;;;;;;;5.75;3.60;;;;;;;25.06;38.76;101005.63;1653999;85;21524;-65
2023/09/06 10:09:12;;;;;;;7.47;3.22;;;;;;;24.95;39.11;100997.73;1654484;85;20995;-64
2023/09/06 10:11:37;;;;;;;6.33;3.10;;;;;;;24.92;39.24;101006.70;1654837;85;21124;-63
2023/09/06 10:14:11;;;;;;;4.08;3.00;;;;;;;24.93;39.06;101008.38;1654301;85;21046;-66
2023/09/06 10:16:40;;;;;;;4.70;3.05;;;;;;;24.92;38.93;101003.90;1654509;85;21073;-65
2023/09/06 10:19:11;;;;;;;5.75;2.75;;;;;;;24.89;39.23;101004.45;1654532;87;21082;-72
2023/09/06 10:21:41;;;;;;;3.35;2.50;;;;;;;24.91;39.02;101003.61;1673955;84;21054;-72
2023/09/06 10:24:18;;;;;;;3.80;2.27;;;;;;;24.94;38.91;100999.69;1654360;87;21105;-74
2023/09/06 10:26:47;;;;;;;4.65;2.62;;;;;;;24.99;38.83;101000.84;1654470;86;21097;-73
2023/09/06 10:29:21;;;;;;;5.42;2.62;;;;;;;25.02;38.46;100994.69;1654387;87;21045;-72
2023/09/06 10:31:53;;;;;;;5.17;2.58;;;;;;;24.99;38.44;100989.08;1673896;84;21081;-73
2023/09/06 10:34:22;;;;;;;4.80;2.47;;;;;;;24.93;38.60;100989.59;1653082;86;21120;-75
2023/09/06 10:36:56;;;;;;;5.08;2.60;;;;;;;25.00;38.51;100981.50;1653792;85;21075;-77
2023/09/06 10:39:26;;;;;;;5.15;2.30;;;;;;;25.05;38.57;100987.11;1654465;85;21057;-78
2023/09/06 10:42:14;;;;;;;4.08;2.70;;;;;;;25.11;38.37;100984.03;1654526;87;21470;-75
2023/09/06 10:45:01;;;;;;;3.08;2.22;;;;;;;25.16;38.43;100984.59;1654306;85;21046;-75
2023/09/06 10:47:33;;;;;;;3.55;2.67;;;;;;;25.25;38.25;100985.71;1654686;85;21157;-75
2023/09/06 10:50:17;;;;;;;5.22;2.20;;;;;;;25.28;38.21;100990.20;1654334;87;21671;-74
2023/09/06 10:52:55;;;;;;;3.45;2.60;;;;;;;25.31;38.06;100987.39;1654437;85;21042;-74
2023/09/06 10:55:30;;;;;;;5.62;2.40;;;;;;;25.33;38.15;100989.91;1654325;87;21038;-81
2023/09/06 10:58:03;;;;;;;6.58;2.65;;;;;;;25.32;38.15;100991.88;1654282;86;21065;-77
2023/09/06 11:00:34;;;;;;;5.17;2.67;;;;;;;25.31;38.24;100987.95;1654440;85;21061;-75
2023/09/06 11:03:17;;;;;;;4.12;2.70;;;;;;;25.32;38.53;100993.84;1654557;85;21102;-75
2023/09/06 11:05:46;;;;;;;3.15;2.20;;;;;;;25.34;38.64;100979.81;1654267;85;21042;-75
2023/09/06 11:08:29;;;;;;;5.22;2.70;;;;;;;25.33;38.52;100980.94;1654366;85;21062;-77
2023/09/06 11:11:04;;;;;;;9.00;2.95;;;;;;;25.31;38.54;100973.36;1631147;87;21508;-75
2023/09/06 11:13:34;;;;;;;7.70;3.62;;;;;;;25.30;38.71;100970.28;1654380;87;21074;-74
2023/09/06 11:16:03;;;;;;;4.70;2.60;;;;;;;25.38;38.75;100979.56;1654618;86;21454;-75
2023/09/06 11:18:46;;;;;;;4.03;2.58;;;;;;;25.41;38.65;100977.59;1654602;87;21456;-76
2023/09/06 11:21:18;;;;;;;4.03;2.70;;;;;;;25.43;38.62;100968.89;1654109;85;21042;-74
2023/09/06 11:23:53;;;;;;;5.65;2.55;;;;;;;25.43;38.72;100971.13;1654507;87;21066;-75
2023/09/06 11:26:22;;;;;;;5.90;2.47;;;;;;;25.43;38.65;100968.33;1673778;84;21566;-76
2023/09/06 11:29:03;;;;;;;8.33;2.80;;;;;;;25.44;38.72;100969.17;1654457;85;21130;-76
2023/09/06 11:31:34;;;;;;;4.45;2.35;;;;;;;25.45;38.76;100963.28;1654391;87;21698;-74
2023/09/06 11:34:05;;;;;;;4.60;2.65;;;;;;;25.45;38.82;100963.28;1654517;85;21172;-77
2023/09/06 11:36:36;;;;;;;4.28;2.40;;;;;;;25.44;39.03;100954.58;1651311;85;21381;-77